Aérodrome :
LOGIN :

S'inscrire | Disclaimer

   EN    FR    IT 

 










Légende :    VFR   VFR Marginal   IFR   IFR Intensif   IFR Très Intensif
Visi : 
Plafond : 
>= 8 km
>= 3000ft
5 à 8 km
1000 à 3000 ft
1500m à 5 km
500 à 1000 ft
800 à 1500m
200 à 500 ft
< 800m
< 200 ft
Symboles :   Orages  Brouillard  Fortes neiges  Fortes précipitations  Vent > 20 kt
SIGMETs :   Divers  Orages  Givrage  Turbulence  Onde Orograph.  Cendres Volcan.






- Altitude de l'aérodrome : 53 ft
- Code IATA : LBC


EDHL - Lübeck

DERNIER METAR :
  • 250720Z 10003KT 040V160 CAVOK 21/16 Q1020

METARs EXPIRÉS :
  • 250650Z 09003KT 030V160 CAVOK 20/15 Q1020
  • 250620Z VRB02KT CAVOK 19/15 Q1020
  • 250550Z 07003KT CAVOK 18/14 Q1020
  • 250520Z 08004KT CAVOK 17/15 Q1020
  • 250450Z VRB02KT CAVOK 15/14 Q1020
  • 250420Z 07002KT CAVOK 14/13 Q1020
  • 250350Z VRB02KT CAVOK 13/12 Q1020
  • 250320Z 00000KT 9000 FEW003 12/12 Q1020
  • 250250Z AUTO 00000KT 3800 // NCD 12/11 Q1020

TAF TAF EDHL
Valide du 25 à 06h jusqu'au 25 à 15h UTC


250500Z 2506/2515 08002KT CAVOK
BECMG 2508/2511 06008KT



MET'MAP, la Météo Aéronautique d'un coup d'oeil ! - Copyright ORBIFLY Décembre 2007 - Disclaimer

ORBIFLY MET'MAP TEAM :

Programmation & Développement : Alexandra Zaïnal
Sur une idée originale de : Baudouin d'Aumeries
Soutien technique & logistique : Manuel Goepfert
Assistance : Marc-Olivier Méhu




SOURCES & CREDITS :

   NOAA